EKSR weather

Stóra Dímun Heliport
Stóra Dímun, Faroe Islands

Public forecast

Using degrees Celsius for public forecast. Weather courtesy of forecast.io.

METAR (pilot weather report)

Closest report is Vagar Airport, 27.0 nm (50.1 km) NNW. Retrieved 2019/07/17 05:20 UTC (15 minutes ago):

EKVG 170520Z AUTO 13008KT 9999 BKN003/// BKN026/// 12/12 Q1007

TAF (pilot weather forecast)

Forecast is more than 12 hours old.

Closest forecast is Vagar Airport, 27.0 nm (50.1 km) NNW. Retrieved 2017/08/20 00:36 UTC (2 years ago):

TAF TAF EKVG 200034Z 2000/2012 33018KT 9000 FEW007 TEMPO 2003/2006 34025G35KT 4000 DZRA BKN006